sensor_id;sensor_type;location;lat;lon;timestamp;P1;durP1;ratioP1;P2;durP2;ratioP2
55114;SDS011;41010;53.252;5.786;2023-07-08T00:00:04;3.28;;;2.05;;
55114;SDS011;41010;53.252;5.786;2023-07-08T00:05:01;3.47;;;2.10;;
55114;SDS011;41010;53.252;5.786;2023-07-08T00:07:30;4.85;;;2.38;;
55114;SDS011;41010;53.252;5.786;2023-07-08T00:09:57;3.60;;;2.30;;
55114;SDS011;41010;53.252;5.786;2023-07-08T00:12:25;3.55;;;2.30;;
55114;SDS011;41010;53.252;5.786;2023-07-08T00:14:52;3.78;;;2.40;;
55114;SDS011;41010;53.252;5.786;2023-07-08T00:17:19;7.38;;;2.65;;
55114;SDS011;41010;53.252;5.786;2023-07-08T00:19:46;4.38;;;2.53;;
55114;SDS011;41010;53.252;5.786;2023-07-08T00:22:16;2.83;;;2.15;;
55114;SDS011;41010;53.252;5.786;2023-07-08T00:24:44;4.32;;;2.20;;
55114;SDS011;41010;53.252;5.786;2023-07-08T00:27:12;4.07;;;2.13;;
55114;SDS011;41010;53.252;5.786;2023-07-08T00:29:39;4.50;;;2.45;;
55114;SDS011;41010;53.252;5.786;2023-07-08T00:32:11;4.07;;;2.40;;
55114;SDS011;41010;53.252;5.786;2023-07-08T00:34:38;3.67;;;2.25;;
55114;SDS011;41010;53.252;5.786;2023-07-08T00:37:07;3.70;;;2.13;;
55114;SDS011;41010;53.252;5.786;2023-07-08T00:39:36;4.68;;;2.40;;
55114;SDS011;41010;53.252;5.786;2023-07-08T00:42:06;3.85;;;2.10;;
55114;SDS011;41010;53.252;5.786;2023-07-08T00:44:38;3.63;;;2.00;;
55114;SDS011;41010;53.252;5.786;2023-07-08T00:47:08;5.70;;;2.50;;
55114;SDS011;41010;53.252;5.786;2023-07-08T00:49:37;5.55;;;2.40;;
55114;SDS011;41010;53.252;5.786;2023-07-08T00:52:19;3.55;;;2.40;;
55114;SDS011;41010;53.252;5.786;2023-07-08T00:54:48;3.83;;;2.55;;
55114;SDS011;41010;53.252;5.786;2023-07-08T00:57:17;6.40;;;2.22;;
55114;SDS011;41010;53.252;5.786;2023-07-08T00:59:46;6.15;;;2.60;;
55114;SDS011;41010;53.252;5.786;2023-07-08T01:02:15;4.90;;;2.45;;
55114;SDS011;41010;53.252;5.786;2023-07-08T01:04:48;4.15;;;2.30;;
55114;SDS011;41010;53.252;5.786;2023-07-08T01:07:17;6.93;;;2.28;;
55114;SDS011;41010;53.252;5.786;2023-07-08T01:09:46;4.32;;;2.38;;
55114;SDS011;41010;53.252;5.786;2023-07-08T01:12:15;4.43;;;2.38;;
55114;SDS011;41010;53.252;5.786;2023-07-08T01:14:46;3.97;;;2.55;;
55114;SDS011;41010;53.252;5.786;2023-07-08T01:17:14;5.57;;;2.55;;
55114;SDS011;41010;53.252;5.786;2023-07-08T01:19:41;3.42;;;2.25;;
55114;SDS011;41010;53.252;5.786;2023-07-08T01:22:10;3.70;;;2.10;;
55114;SDS011;41010;53.252;5.786;2023-07-08T01:24:40;6.38;;;2.17;;
55114;SDS011;41010;53.252;5.786;2023-07-08T01:27:10;4.25;;;2.35;;
55114;SDS011;41010;53.252;5.786;2023-07-08T01:29:37;2.97;;;2.10;;
55114;SDS011;41010;53.252;5.786;2023-07-08T01:32:05;5.15;;;2.40;;
55114;SDS011;41010;53.252;5.786;2023-07-08T01:34:32;5.55;;;2.55;;
55114;SDS011;41010;53.252;5.786;2023-07-08T01:37:01;3.92;;;2.60;;
55114;SDS011;41010;53.252;5.786;2023-07-08T01:39:30;3.75;;;2.30;;
55114;SDS011;41010;53.252;5.786;2023-07-08T01:41:58;5.90;;;2.30;;
55114;SDS011;41010;53.252;5.786;2023-07-08T01:44:27;3.90;;;2.30;;
55114;SDS011;41010;53.252;5.786;2023-07-08T01:46:55;3.75;;;2.30;;
55114;SDS011;41010;53.252;5.786;2023-07-08T01:49:24;5.88;;;2.53;;
55114;SDS011;41010;53.252;5.786;2023-07-08T01:51:51;5.47;;;2.50;;
55114;SDS011;41010;53.252;5.786;2023-07-08T01:54:19;3.85;;;2.58;;
55114;SDS011;41010;53.252;5.786;2023-07-08T01:56:47;3.95;;;2.50;;
55114;SDS011;41010;53.252;5.786;2023-07-08T01:59:17;4.60;;;2.65;;
55114;SDS011;41010;53.252;5.786;2023-07-08T02:01:44;4.72;;;2.13;;
55114;SDS011;41010;53.252;5.786;2023-07-08T02:04:12;5.15;;;2.35;;
55114;SDS011;41010;53.252;5.786;2023-07-08T02:06:39;5.20;;;2.55;;
55114;SDS011;41010;53.252;5.786;2023-07-08T02:09:07;4.68;;;2.60;;
55114;SDS011;41010;53.252;5.786;2023-07-08T02:11:34;6.18;;;2.67;;
55114;SDS011;41010;53.252;5.786;2023-07-08T02:14:03;5.05;;;2.75;;
55114;SDS011;41010;53.252;5.786;2023-07-08T02:16:31;7.43;;;2.67;;
55114;SDS011;41010;53.252;5.786;2023-07-08T02:18:58;4.78;;;2.75;;
55114;SDS011;41010;53.252;5.786;2023-07-08T02:21:25;4.65;;;2.60;;
55114;SDS011;41010;53.252;5.786;2023-07-08T02:23:56;4.25;;;2.70;;
55114;SDS011;41010;53.252;5.786;2023-07-08T02:26:23;5.97;;;3.03;;
55114;SDS011;41010;53.252;5.786;2023-07-08T02:28:51;5.82;;;3.20;;
55114;SDS011;41010;53.252;5.786;2023-07-08T02:31:20;6.70;;;2.80;;
55114;SDS011;41010;53.252;5.786;2023-07-08T02:33:49;4.78;;;2.75;;
55114;SDS011;41010;53.252;5.786;2023-07-08T02:36:17;5.82;;;2.63;;
55114;SDS011;41010;53.252;5.786;2023-07-08T02:38:44;7.05;;;2.60;;
55114;SDS011;41010;53.252;5.786;2023-07-08T02:41:11;4.70;;;2.90;;
55114;SDS011;41010;53.252;5.786;2023-07-08T02:43:39;4.30;;;2.42;;
55114;SDS011;41010;53.252;5.786;2023-07-08T02:46:06;6.57;;;2.75;;
55114;SDS011;41010;53.252;5.786;2023-07-08T02:48:35;3.78;;;2.35;;
55114;SDS011;41010;53.252;5.786;2023-07-08T02:51:03;4.32;;;2.88;;
55114;SDS011;41010;53.252;5.786;2023-07-08T02:53:30;3.83;;;2.60;;
55114;SDS011;41010;53.252;5.786;2023-07-08T02:55:58;5.47;;;2.97;;
55114;SDS011;41010;53.252;5.786;2023-07-08T02:58:25;4.07;;;2.70;;
55114;SDS011;41010;53.252;5.786;2023-07-08T03:00:52;4.90;;;2.97;;
55114;SDS011;41010;53.252;5.786;2023-07-08T03:03:19;7.15;;;3.00;;
55114;SDS011;41010;53.252;5.786;2023-07-08T03:05:54;6.18;;;2.72;;
55114;SDS011;41010;53.252;5.786;2023-07-08T03:08:22;5.00;;;2.75;;
55114;SDS011;41010;53.252;5.786;2023-07-08T03:10:53;6.72;;;2.65;;
55114;SDS011;41010;53.252;5.786;2023-07-08T03:13:21;4.68;;;2.60;;
55114;SDS011;41010;53.252;5.786;2023-07-08T03:15:49;5.78;;;2.67;;
55114;SDS011;41010;53.252;5.786;2023-07-08T03:18:16;5.07;;;2.90;;
55114;SDS011;41010;53.252;5.786;2023-07-08T03:20:47;9.30;;;3.00;;
55114;SDS011;41010;53.252;5.786;2023-07-08T03:23:15;6.95;;;2.88;;
55114;SDS011;41010;53.252;5.786;2023-07-08T03:25:42;6.35;;;3.25;;
55114;SDS011;41010;53.252;5.786;2023-07-08T03:28:10;5.60;;;3.13;;
55114;SDS011;41010;53.252;5.786;2023-07-08T03:30:40;7.13;;;2.88;;
55114;SDS011;41010;53.252;5.786;2023-07-08T03:33:07;6.07;;;2.80;;
55114;SDS011;41010;53.252;5.786;2023-07-08T03:35:34;5.10;;;2.80;;
55114;SDS011;41010;53.252;5.786;2023-07-08T03:38:02;7.95;;;3.05;;
55114;SDS011;41010;53.252;5.786;2023-07-08T03:40:31;5.68;;;3.15;;
55114;SDS011;41010;53.252;5.786;2023-07-08T03:42:58;5.57;;;3.00;;
55114;SDS011;41010;53.252;5.786;2023-07-08T03:45:25;6.57;;;2.97;;
55114;SDS011;41010;53.252;5.786;2023-07-08T03:47:53;4.35;;;2.92;;
55114;SDS011;41010;53.252;5.786;2023-07-08T03:50:21;5.65;;;2.90;;
55114;SDS011;41010;53.252;5.786;2023-07-08T03:52:49;5.68;;;3.08;;
55114;SDS011;41010;53.252;5.786;2023-07-08T03:55:17;4.43;;;3.05;;
55114;SDS011;41010;53.252;5.786;2023-07-08T03:57:46;5.40;;;3.20;;
55114;SDS011;41010;53.252;5.786;2023-07-08T04:00:13;4.32;;;3.00;;
55114;SDS011;41010;53.252;5.786;2023-07-08T04:02:41;7.18;;;3.10;;
55114;SDS011;41010;53.252;5.786;2023-07-08T04:05:09;4.80;;;2.85;;
55114;SDS011;41010;53.252;5.786;2023-07-08T04:07:40;6.25;;;3.03;;
55114;SDS011;41010;53.252;5.786;2023-07-08T04:10:07;5.45;;;3.20;;
55114;SDS011;41010;53.252;5.786;2023-07-08T04:12:34;5.72;;;3.05;;
55114;SDS011;41010;53.252;5.786;2023-07-08T04:15:04;5.25;;;3.10;;
55114;SDS011;41010;53.252;5.786;2023-07-08T04:17:31;4.68;;;2.83;;
55114;SDS011;41010;53.252;5.786;2023-07-08T04:19:59;6.13;;;3.08;;
55114;SDS011;41010;53.252;5.786;2023-07-08T04:22:29;6.55;;;3.00;;
55114;SDS011;41010;53.252;5.786;2023-07-08T04:24:56;5.65;;;3.08;;
55114;SDS011;41010;53.252;5.786;2023-07-08T04:27:23;7.03;;;3.50;;
55114;SDS011;41010;53.252;5.786;2023-07-08T04:29:50;6.13;;;3.33;;
55114;SDS011;41010;53.252;5.786;2023-07-08T04:32:19;6.32;;;3.13;;
55114;SDS011;41010;53.252;5.786;2023-07-08T04:34:50;5.30;;;3.38;;
55114;SDS011;41010;53.252;5.786;2023-07-08T04:37:17;4.22;;;2.90;;
55114;SDS011;41010;53.252;5.786;2023-07-08T04:39:45;6.82;;;2.75;;
55114;SDS011;41010;53.252;5.786;2023-07-08T04:42:13;7.28;;;3.25;;
55114;SDS011;41010;53.252;5.786;2023-07-08T04:44:42;5.50;;;3.10;;
55114;SDS011;41010;53.252;5.786;2023-07-08T04:47:10;5.28;;;3.25;;
55114;SDS011;41010;53.252;5.786;2023-07-08T04:49:40;7.13;;;2.90;;
55114;SDS011;41010;53.252;5.786;2023-07-08T04:52:09;6.63;;;3.15;;
55114;SDS011;41010;53.252;5.786;2023-07-08T04:54:36;4.78;;;3.05;;
55114;SDS011;41010;53.252;5.786;2023-07-08T04:57:03;3.33;;;2.55;;
55114;SDS011;41010;53.252;5.786;2023-07-08T04:59:31;4.18;;;2.90;;
55114;SDS011;41010;53.252;5.786;2023-07-08T05:01:59;5.60;;;2.88;;
55114;SDS011;41010;53.252;5.786;2023-07-08T05:04:26;5.68;;;2.97;;
55114;SDS011;41010;53.252;5.786;2023-07-08T05:06:55;5.65;;;3.05;;
55114;SDS011;41010;53.252;5.786;2023-07-08T05:09:22;5.50;;;2.88;;
55114;SDS011;41010;53.252;5.786;2023-07-08T05:11:51;4.50;;;3.03;;
55114;SDS011;41010;53.252;5.786;2023-07-08T05:14:18;5.70;;;2.90;;
55114;SDS011;41010;53.252;5.786;2023-07-08T05:16:46;4.40;;;2.90;;
55114;SDS011;41010;53.252;5.786;2023-07-08T05:19:13;6.07;;;2.83;;
55114;SDS011;41010;53.252;5.786;2023-07-08T05:21:40;4.57;;;2.58;;
55114;SDS011;41010;53.252;5.786;2023-07-08T05:24:09;5.15;;;2.63;;
55114;SDS011;41010;53.252;5.786;2023-07-08T05:26:36;3.97;;;3.00;;
55114;SDS011;41010;53.252;5.786;2023-07-08T05:29:04;4.32;;;2.55;;
55114;SDS011;41010;53.252;5.786;2023-07-08T05:31:32;5.68;;;3.25;;
55114;SDS011;41010;53.252;5.786;2023-07-08T05:34:00;3.88;;;2.58;;
55114;SDS011;41010;53.252;5.786;2023-07-08T05:36:27;4.10;;;2.70;;
55114;SDS011;41010;53.252;5.786;2023-07-08T05:38:55;4.43;;;2.38;;
55114;SDS011;41010;53.252;5.786;2023-07-08T05:41:23;4.53;;;2.70;;
55114;SDS011;41010;53.252;5.786;2023-07-08T05:43:51;4.20;;;2.45;;
55114;SDS011;41010;53.252;5.786;2023-07-08T05:46:18;5.57;;;2.58;;
55114;SDS011;41010;53.252;5.786;2023-07-08T05:48:45;6.90;;;2.55;;
55114;SDS011;41010;53.252;5.786;2023-07-08T05:51:14;4.97;;;2.90;;
55114;SDS011;41010;53.252;5.786;2023-07-08T05:53:41;5.55;;;2.55;;
55114;SDS011;41010;53.252;5.786;2023-07-08T05:56:08;5.15;;;2.22;;
55114;SDS011;41010;53.252;5.786;2023-07-08T05:58:37;4.13;;;2.20;;
55114;SDS011;41010;53.252;5.786;2023-07-08T06:01:04;3.85;;;2.60;;
55114;SDS011;41010;53.252;5.786;2023-07-08T06:03:31;3.35;;;2.50;;
55114;SDS011;41010;53.252;5.786;2023-07-08T06:05:59;3.92;;;2.28;;
55114;SDS011;41010;53.252;5.786;2023-07-08T06:08:27;5.60;;;2.63;;
55114;SDS011;41010;53.252;5.786;2023-07-08T06:10:54;4.57;;;2.13;;
55114;SDS011;41010;53.252;5.786;2023-07-08T06:13:21;4.03;;;2.40;;
55114;SDS011;41010;53.252;5.786;2023-07-08T06:15:50;4.28;;;2.30;;
55114;SDS011;41010;53.252;5.786;2023-07-08T06:18:17;4.30;;;2.35;;
55114;SDS011;41010;53.252;5.786;2023-07-08T06:20:50;4.57;;;2.50;;
55114;SDS011;41010;53.252;5.786;2023-07-08T06:23:17;5.10;;;2.42;;
55114;SDS011;41010;53.252;5.786;2023-07-08T06:25:45;3.88;;;2.30;;
55114;SDS011;41010;53.252;5.786;2023-07-08T06:28:12;8.07;;;2.50;;
55114;SDS011;41010;53.252;5.786;2023-07-08T06:30:39;3.35;;;2.25;;
55114;SDS011;41010;53.252;5.786;2023-07-08T06:33:08;3.47;;;2.25;;
55114;SDS011;41010;53.252;5.786;2023-07-08T06:35:36;3.00;;;1.90;;
55114;SDS011;41010;53.252;5.786;2023-07-08T06:38:03;3.92;;;2.00;;
55114;SDS011;41010;53.252;5.786;2023-07-08T06:40:31;3.75;;;2.20;;
55114;SDS011;41010;53.252;5.786;2023-07-08T06:42:58;5.28;;;2.33;;
55114;SDS011;41010;53.252;5.786;2023-07-08T06:45:25;6.20;;;2.30;;
55114;SDS011;41010;53.252;5.786;2023-07-08T06:47:53;5.55;;;2.30;;
55114;SDS011;41010;53.252;5.786;2023-07-08T06:50:21;6.78;;;2.25;;
55114;SDS011;41010;53.252;5.786;2023-07-08T06:52:49;3.58;;;2.10;;
55114;SDS011;41010;53.252;5.786;2023-07-08T06:55:16;4.15;;;2.20;;
55114;SDS011;41010;53.252;5.786;2023-07-08T06:57:43;7.32;;;1.83;;
55114;SDS011;41010;53.252;5.786;2023-07-08T07:00:11;3.45;;;2.00;;
55114;SDS011;41010;53.252;5.786;2023-07-08T07:02:38;2.92;;;2.10;;
55114;SDS011;41010;53.252;5.786;2023-07-08T07:05:06;4.82;;;1.90;;
55114;SDS011;41010;53.252;5.786;2023-07-08T07:07:34;2.75;;;1.90;;
55114;SDS011;41010;53.252;5.786;2023-07-08T07:10:02;2.92;;;2.08;;
55114;SDS011;41010;53.252;5.786;2023-07-08T07:12:30;5.45;;;1.80;;
55114;SDS011;41010;53.252;5.786;2023-07-08T07:14:58;3.92;;;2.17;;
55114;SDS011;41010;53.252;5.786;2023-07-08T07:17:25;3.55;;;2.00;;
55114;SDS011;41010;53.252;5.786;2023-07-08T07:19:52;2.40;;;1.75;;
55114;SDS011;41010;53.252;5.786;2023-07-08T07:22:19;2.70;;;1.80;;
55114;SDS011;41010;53.252;5.786;2023-07-08T07:24:48;6.47;;;1.80;;
55114;SDS011;41010;53.252;5.786;2023-07-08T07:27:15;8.23;;;1.95;;
55114;SDS011;41010;53.252;5.786;2023-07-08T07:29:43;3.38;;;1.73;;
55114;SDS011;41010;53.252;5.786;2023-07-08T07:32:11;6.60;;;2.03;;
55114;SDS011;41010;53.252;5.786;2023-07-08T07:34:39;2.75;;;2.00;;
55114;SDS011;41010;53.252;5.786;2023-07-08T07:37:06;6.00;;;2.15;;
55114;SDS011;41010;53.252;5.786;2023-07-08T07:39:37;3.05;;;1.80;;
55114;SDS011;41010;53.252;5.786;2023-07-08T07:42:06;4.72;;;1.73;;
55114;SDS011;41010;53.252;5.786;2023-07-08T07:44:33;2.75;;;1.83;;
55114;SDS011;41010;53.252;5.786;2023-07-08T07:47:01;7.32;;;2.20;;
55114;SDS011;41010;53.252;5.786;2023-07-08T07:49:28;3.85;;;1.90;;
55114;SDS011;41010;53.252;5.786;2023-07-08T07:51:56;5.93;;;1.90;;
55114;SDS011;41010;53.252;5.786;2023-07-08T07:54:23;3.28;;;1.67;;
55114;SDS011;41010;53.252;5.786;2023-07-08T07:56:50;3.17;;;1.95;;
55114;SDS011;41010;53.252;5.786;2023-07-08T07:59:19;6.38;;;1.90;;
55114;SDS011;41010;53.252;5.786;2023-07-08T08:01:46;5.13;;;1.77;;
55114;SDS011;41010;53.252;5.786;2023-07-08T08:04:13;3.20;;;1.80;;
55114;SDS011;41010;53.252;5.786;2023-07-08T08:06:41;2.75;;;1.70;;
55114;SDS011;41010;53.252;5.786;2023-07-08T08:09:08;2.10;;;1.50;;
55114;SDS011;41010;53.252;5.786;2023-07-08T08:11:35;3.17;;;1.80;;
55114;SDS011;41010;53.252;5.786;2023-07-08T08:14:02;2.33;;;1.73;;
55114;SDS011;41010;53.252;5.786;2023-07-08T08:16:31;3.10;;;1.73;;
55114;SDS011;41010;53.252;5.786;2023-07-08T08:18:58;3.05;;;1.95;;
55114;SDS011;41010;53.252;5.786;2023-07-08T08:21:25;3.00;;;1.83;;
55114;SDS011;41010;53.252;5.786;2023-07-08T08:23:53;4.55;;;1.70;;
55114;SDS011;41010;53.252;5.786;2023-07-08T08:26:20;2.78;;;1.80;;
55114;SDS011;41010;53.252;5.786;2023-07-08T08:28:47;3.70;;;1.60;;
55114;SDS011;41010;53.252;5.786;2023-07-08T08:31:14;3.55;;;1.58;;
55114;SDS011;41010;53.252;5.786;2023-07-08T08:33:43;2.05;;;1.52;;
55114;SDS011;41010;53.252;5.786;2023-07-08T08:36:11;2.83;;;1.73;;
55114;SDS011;41010;53.252;5.786;2023-07-08T08:38:38;1.85;;;1.60;;
55114;SDS011;41010;53.252;5.786;2023-07-08T08:41:08;3.38;;;1.90;;
55114;SDS011;41010;53.252;5.786;2023-07-08T08:43:39;2.25;;;1.67;;
55114;SDS011;41010;53.252;5.786;2023-07-08T08:46:09;2.83;;;1.98;;
55114;SDS011;41010;53.252;5.786;2023-07-08T08:48:41;3.03;;;1.70;;
55114;SDS011;41010;53.252;5.786;2023-07-08T08:51:12;4.22;;;1.80;;
55114;SDS011;41010;53.252;5.786;2023-07-08T08:53:40;2.50;;;1.67;;
55114;SDS011;41010;53.252;5.786;2023-07-08T08:56:09;3.92;;;1.70;;
55114;SDS011;41010;53.252;5.786;2023-07-08T08:58:39;2.33;;;1.70;;
55114;SDS011;41010;53.252;5.786;2023-07-08T09:01:11;3.88;;;1.50;;
55114;SDS011;41010;53.252;5.786;2023-07-08T09:03:41;3.28;;;1.90;;
55114;SDS011;41010;53.252;5.786;2023-07-08T09:06:13;2.95;;;1.90;;
55114;SDS011;41010;53.252;5.786;2023-07-08T09:08:40;3.75;;;1.67;;
55114;SDS011;41010;53.252;5.786;2023-07-08T09:11:18;2.22;;;1.65;;
55114;SDS011;41010;53.252;5.786;2023-07-08T09:13:46;2.50;;;1.50;;
55114;SDS011;41010;53.252;5.786;2023-07-08T09:16:14;4.18;;;1.75;;
55114;SDS011;41010;53.252;5.786;2023-07-08T09:18:45;3.20;;;1.67;;
55114;SDS011;41010;53.252;5.786;2023-07-08T09:21:17;5.18;;;1.88;;
55114;SDS011;41010;53.252;5.786;2023-07-08T09:23:46;2.58;;;1.77;;
55114;SDS011;41010;53.252;5.786;2023-07-08T09:26:15;3.00;;;2.00;;
55114;SDS011;41010;53.252;5.786;2023-07-08T09:28:44;2.58;;;1.70;;
55114;SDS011;41010;53.252;5.786;2023-07-08T09:31:16;2.90;;;1.90;;
55114;SDS011;41010;53.252;5.786;2023-07-08T09:33:47;6.53;;;1.70;;
55114;SDS011;41010;53.252;5.786;2023-07-08T09:36:21;3.00;;;1.83;;
55114;SDS011;41010;53.252;5.786;2023-07-08T09:38:49;3.72;;;1.65;;
55114;SDS011;41010;53.252;5.786;2023-07-08T09:41:29;2.72;;;1.67;;
55114;SDS011;41010;53.252;5.786;2023-07-08T09:44:03;2.72;;;1.80;;
55114;SDS011;41010;53.252;5.786;2023-07-08T09:46:35;2.00;;;1.50;;
55114;SDS011;41010;53.252;5.786;2023-07-08T09:49:09;3.22;;;1.80;;
55114;SDS011;41010;53.252;5.786;2023-07-08T09:51:37;2.47;;;1.60;;
55114;SDS011;41010;53.252;5.786;2023-07-08T09:54:05;2.38;;;1.90;;
55114;SDS011;41010;53.252;5.786;2023-07-08T09:56:32;4.85;;;1.95;;
55114;SDS011;41010;53.252;5.786;2023-07-08T09:58:59;6.65;;;1.90;;
55114;SDS011;41010;53.252;5.786;2023-07-08T10:01:28;3.58;;;1.70;;
55114;SDS011;41010;53.252;5.786;2023-07-08T10:03:57;3.15;;;1.50;;
55114;SDS011;41010;53.252;5.786;2023-07-08T10:06:25;3.33;;;1.80;;
55114;SDS011;41010;53.252;5.786;2023-07-08T10:08:54;2.70;;;1.90;;
55114;SDS011;41010;53.252;5.786;2023-07-08T10:11:23;4.82;;;1.90;;
55114;SDS011;41010;53.252;5.786;2023-07-08T10:13:52;3.25;;;1.90;;
55114;SDS011;41010;53.252;5.786;2023-07-08T10:16:21;3.47;;;1.85;;
55114;SDS011;41010;53.252;5.786;2023-07-08T10:18:49;3.30;;;1.85;;
55114;SDS011;41010;53.252;5.786;2023-07-08T10:21:21;3.60;;;1.70;;
55114;SDS011;41010;53.252;5.786;2023-07-08T10:23:54;3.55;;;1.75;;
55114;SDS011;41010;53.252;5.786;2023-07-08T10:26:25;3.13;;;2.03;;
55114;SDS011;41010;53.252;5.786;2023-07-08T10:28:56;2.78;;;1.73;;
55114;SDS011;41010;53.252;5.786;2023-07-08T10:31:26;3.40;;;1.88;;
55114;SDS011;41010;53.252;5.786;2023-07-08T10:34:03;2.97;;;2.05;;
55114;SDS011;41010;53.252;5.786;2023-07-08T10:36:39;2.35;;;1.85;;
55114;SDS011;41010;53.252;5.786;2023-07-08T10:39:17;3.67;;;1.83;;
55114;SDS011;41010;53.252;5.786;2023-07-08T10:41:48;2.47;;;1.80;;
55114;SDS011;41010;53.252;5.786;2023-07-08T10:44:19;1.98;;;1.75;;
55114;SDS011;41010;53.252;5.786;2023-07-08T10:46:49;3.72;;;1.83;;
55114;SDS011;41010;53.252;5.786;2023-07-08T10:49:26;3.08;;;1.85;;
55114;SDS011;41010;53.252;5.786;2023-07-08T10:51:57;3.03;;;1.85;;
55114;SDS011;41010;53.252;5.786;2023-07-08T10:54:34;4.07;;;2.10;;
55114;SDS011;41010;53.252;5.786;2023-07-08T10:57:10;3.55;;;2.00;;
55114;SDS011;41010;53.252;5.786;2023-07-08T10:59:42;2.67;;;1.85;;
55114;SDS011;41010;53.252;5.786;2023-07-08T11:02:28;3.80;;;2.05;;
55114;SDS011;41010;53.252;5.786;2023-07-08T11:05:03;2.25;;;1.77;;
55114;SDS011;41010;53.252;5.786;2023-07-08T11:10:02;2.53;;;1.92;;
55114;SDS011;41010;53.252;5.786;2023-07-08T11:12:33;2.97;;;1.77;;
55114;SDS011;41010;53.252;5.786;2023-07-08T11:15:03;5.60;;;2.05;;
55114;SDS011;41010;53.252;5.786;2023-07-08T11:17:32;2.33;;;2.08;;
55114;SDS011;41010;53.252;5.786;2023-07-08T11:20:04;3.60;;;2.08;;
55114;SDS011;41010;53.252;5.786;2023-07-08T11:22:37;4.13;;;2.20;;
55114;SDS011;41010;53.252;5.786;2023-07-08T11:25:08;2.60;;;2.22;;
55114;SDS011;41010;53.252;5.786;2023-07-08T11:27:43;3.00;;;2.08;;
55114;SDS011;41010;53.252;5.786;2023-07-08T11:30:13;2.83;;;2.05;;
55114;SDS011;41010;53.252;5.786;2023-07-08T11:32:40;2.70;;;2.20;;
55114;SDS011;41010;53.252;5.786;2023-07-08T11:35:13;2.95;;;2.30;;
55114;SDS011;41010;53.252;5.786;2023-07-08T11:37:43;4.00;;;2.13;;
55114;SDS011;41010;53.252;5.786;2023-07-08T11:40:17;2.85;;;2.35;;
55114;SDS011;41010;53.252;5.786;2023-07-08T11:42:47;2.33;;;1.95;;
55114;SDS011;41010;53.252;5.786;2023-07-08T11:47:45;6.15;;;2.30;;
55114;SDS011;41010;53.252;5.786;2023-07-08T11:50:15;2.55;;;2.20;;
55114;SDS011;41010;53.252;5.786;2023-07-08T11:52:49;2.55;;;2.30;;
55114;SDS011;41010;53.252;5.786;2023-07-08T11:55:21;3.10;;;2.40;;
55114;SDS011;41010;53.252;5.786;2023-07-08T11:57:53;3.05;;;2.60;;
55114;SDS011;41010;53.252;5.786;2023-07-08T12:00:23;2.58;;;2.30;;
55114;SDS011;41010;53.252;5.786;2023-07-08T12:02:51;6.68;;;2.70;;
55114;SDS011;41010;53.252;5.786;2023-07-08T12:05:28;2.95;;;2.30;;
55114;SDS011;41010;53.252;5.786;2023-07-08T12:07:56;2.65;;;2.30;;
55114;SDS011;41010;53.252;5.786;2023-07-08T12:10:27;2.63;;;2.30;;
55114;SDS011;41010;53.252;5.786;2023-07-08T12:12:55;7.65;;;2.70;;
55114;SDS011;41010;53.252;5.786;2023-07-08T12:15:23;4.25;;;2.33;;
55114;SDS011;41010;53.252;5.786;2023-07-08T12:17:52;3.78;;;2.50;;
55114;SDS011;41010;53.252;5.786;2023-07-08T12:20:21;3.25;;;2.50;;
55114;SDS011;41010;53.252;5.786;2023-07-08T12:22:49;3.88;;;2.90;;
55114;SDS011;41010;53.252;5.786;2023-07-08T12:25:17;5.07;;;2.95;;
55114;SDS011;41010;53.252;5.786;2023-07-08T12:27:46;4.57;;;2.60;;
55114;SDS011;41010;53.252;5.786;2023-07-08T12:30:14;4.18;;;2.80;;
55114;SDS011;41010;53.252;5.786;2023-07-08T12:32:42;3.35;;;2.80;;
55114;SDS011;41010;53.252;5.786;2023-07-08T12:35:14;3.08;;;2.50;;
55114;SDS011;41010;53.252;5.786;2023-07-08T12:37:43;5.05;;;2.85;;
55114;SDS011;41010;53.252;5.786;2023-07-08T12:40:11;3.47;;;2.60;;
55114;SDS011;41010;53.252;5.786;2023-07-08T12:42:38;8.40;;;2.60;;
55114;SDS011;41010;53.252;5.786;2023-07-08T12:45:11;4.47;;;2.83;;
55114;SDS011;41010;53.252;5.786;2023-07-08T12:47:39;3.20;;;2.65;;
55114;SDS011;41010;53.252;5.786;2023-07-08T12:50:08;2.70;;;2.50;;
55114;SDS011;41010;53.252;5.786;2023-07-08T12:52:38;4.45;;;2.60;;
55114;SDS011;41010;53.252;5.786;2023-07-08T12:55:08;3.42;;;2.83;;
55114;SDS011;41010;53.252;5.786;2023-07-08T12:57:35;3.78;;;2.67;;
55114;SDS011;41010;53.252;5.786;2023-07-08T13:00:04;4.68;;;2.65;;
55114;SDS011;41010;53.252;5.786;2023-07-08T13:02:33;3.28;;;2.90;;
55114;SDS011;41010;53.252;5.786;2023-07-08T13:05:00;3.38;;;2.78;;
55114;SDS011;41010;53.252;5.786;2023-07-08T13:07:32;2.97;;;2.70;;
55114;SDS011;41010;53.252;5.786;2023-07-08T13:10:00;4.18;;;2.95;;
55114;SDS011;41010;53.252;5.786;2023-07-08T13:12:28;3.63;;;3.10;;
55114;SDS011;41010;53.252;5.786;2023-07-08T13:14:56;5.35;;;3.00;;
55114;SDS011;41010;53.252;5.786;2023-07-08T13:17:24;5.03;;;3.00;;
55114;SDS011;41010;53.252;5.786;2023-07-08T13:19:53;3.88;;;2.90;;
55114;SDS011;41010;53.252;5.786;2023-07-08T13:22:21;3.33;;;2.97;;
55114;SDS011;41010;53.252;5.786;2023-07-08T13:24:49;3.47;;;2.97;;
55114;SDS011;41010;53.252;5.786;2023-07-08T13:27:25;3.97;;;3.03;;
55114;SDS011;41010;53.252;5.786;2023-07-08T13:29:53;4.10;;;3.20;;
55114;SDS011;41010;53.252;5.786;2023-07-08T13:32:21;5.43;;;3.00;;
55114;SDS011;41010;53.252;5.786;2023-07-08T13:34:57;4.13;;;3.28;;
55114;SDS011;41010;53.252;5.786;2023-07-08T13:37:24;3.47;;;3.05;;
55114;SDS011;41010;53.252;5.786;2023-07-08T13:39:52;4.20;;;3.40;;
55114;SDS011;41010;53.252;5.786;2023-07-08T13:42:19;3.33;;;3.03;;
55114;SDS011;41010;53.252;5.786;2023-07-08T13:44:47;6.50;;;3.38;;
55114;SDS011;41010;53.252;5.786;2023-07-08T13:47:20;3.35;;;3.05;;
55114;SDS011;41010;53.252;5.786;2023-07-08T13:49:49;3.30;;;3.00;;
55114;SDS011;41010;53.252;5.786;2023-07-08T13:52:20;4.00;;;3.60;;
55114;SDS011;41010;53.252;5.786;2023-07-08T13:54:48;3.80;;;3.40;;
55114;SDS011;41010;53.252;5.786;2023-07-08T13:57:16;3.60;;;3.30;;
55114;SDS011;41010;53.252;5.786;2023-07-08T13:59:45;3.47;;;3.17;;
55114;SDS011;41010;53.252;5.786;2023-07-08T14:02:16;4.00;;;3.42;;
55114;SDS011;41010;53.252;5.786;2023-07-08T14:04:43;4.10;;;3.45;;
55114;SDS011;41010;53.252;5.786;2023-07-08T14:07:13;3.97;;;3.58;;
55114;SDS011;41010;53.252;5.786;2023-07-08T14:09:43;4.45;;;4.05;;
55114;SDS011;41010;53.252;5.786;2023-07-08T14:12:11;4.40;;;4.00;;
55114;SDS011;41010;53.252;5.786;2023-07-08T14:14:38;4.53;;;4.13;;
55114;SDS011;41010;53.252;5.786;2023-07-08T14:17:07;4.00;;;3.60;;
55114;SDS011;41010;53.252;5.786;2023-07-08T14:19:35;3.95;;;3.58;;
55114;SDS011;41010;53.252;5.786;2023-07-08T14:22:07;5.57;;;3.60;;
55114;SDS011;41010;53.252;5.786;2023-07-08T14:24:37;3.90;;;3.60;;
55114;SDS011;41010;53.252;5.786;2023-07-08T14:27:06;4.43;;;4.03;;
55114;SDS011;41010;53.252;5.786;2023-07-08T14:29:37;5.13;;;3.70;;
55114;SDS011;41010;53.252;5.786;2023-07-08T14:32:04;4.32;;;3.40;;
55114;SDS011;41010;53.252;5.786;2023-07-08T14:34:32;4.65;;;3.65;;
55114;SDS011;41010;53.252;5.786;2023-07-08T14:37:00;4.57;;;3.92;;
55114;SDS011;41010;53.252;5.786;2023-07-08T14:39:27;4.80;;;3.85;;
55114;SDS011;41010;53.252;5.786;2023-07-08T14:41:54;4.32;;;3.92;;
55114;SDS011;41010;53.252;5.786;2023-07-08T14:44:24;4.22;;;3.83;;
55114;SDS011;41010;53.252;5.786;2023-07-08T14:46:51;5.22;;;3.70;;
55114;SDS011;41010;53.252;5.786;2023-07-08T14:49:21;4.38;;;3.90;;
55114;SDS011;41010;53.252;5.786;2023-07-08T14:51:48;4.63;;;3.90;;
55114;SDS011;41010;53.252;5.786;2023-07-08T14:54:16;4.38;;;3.72;;
55114;SDS011;41010;53.252;5.786;2023-07-08T14:56:44;4.85;;;3.90;;
55114;SDS011;41010;53.252;5.786;2023-07-08T14:59:12;4.53;;;4.00;;
55114;SDS011;41010;53.252;5.786;2023-07-08T15:01:43;6.40;;;3.80;;
55114;SDS011;41010;53.252;5.786;2023-07-08T15:04:11;4.30;;;3.90;;